createdAt,value
2023-08-01T00:02:24.981Z,82.21
2023-08-01T00:04:51.986Z,81.50
2023-08-01T00:07:18.901Z,81.92
2023-08-01T00:09:45.861Z,82.17
2023-08-01T00:12:13.074Z,82.16
2023-08-01T00:14:40.049Z,82.29
2023-08-01T00:17:07.150Z,81.80
2023-08-01T00:19:34.260Z,81.50
2023-08-01T00:22:01.130Z,81.58
2023-08-01T00:24:28.188Z,81.58
2023-08-01T00:26:58.026Z,81.32
2023-08-01T00:29:25.169Z,81.89
2023-08-01T00:31:52.257Z,81.53
2023-08-01T00:34:19.318Z,81.54
2023-08-01T00:36:46.338Z,81.26
2023-08-01T00:39:13.447Z,81.77
2023-08-01T00:41:40.568Z,81.78
2023-08-01T00:44:07.545Z,82.30
2023-08-01T00:46:34.700Z,82.23
2023-08-01T00:49:01.880Z,81.86
2023-08-01T00:51:30.391Z,81.70
2023-08-01T00:53:58.021Z,81.80
2023-08-01T00:56:25.181Z,82.51
2023-08-01T00:58:52.082Z,82.36
2023-08-01T01:01:19.288Z,82.92
2023-08-01T01:03:46.549Z,82.75
2023-08-01T01:06:46.229Z,82.65
2023-08-01T01:09:21.334Z,83.33
2023-08-01T01:11:49.343Z,83.06
2023-08-01T01:14:16.312Z,83.20
2023-08-01T01:16:43.518Z,83.22
2023-08-01T01:19:10.759Z,82.72
2023-08-01T01:24:27.345Z,83.50
2023-08-01T01:26:55.746Z,82.88
2023-08-01T01:29:24.728Z,83.71
2023-08-01T01:31:51.780Z,83.31
2023-08-01T01:34:19.971Z,83.41
2023-08-01T01:36:46.872Z,83.30
2023-08-01T01:39:13.788Z,83.57
2023-08-01T01:41:40.612Z,83.71
2023-08-01T01:44:07.599Z,83.87
2023-08-01T01:46:34.451Z,83.69
2023-08-01T01:49:01.220Z,83.68
2023-08-01T01:51:28.976Z,83.70
2023-08-01T01:53:55.816Z,83.36
2023-08-01T01:56:23.545Z,83.61
2023-08-01T01:58:50.531Z,83.30
2023-08-01T02:01:17.518Z,83.52
2023-08-01T02:03:44.506Z,83.63
2023-08-01T02:06:11.734Z,83.88
2023-08-01T02:08:38.453Z,84.10
2023-08-01T02:11:05.729Z,84.05
2023-08-01T02:13:35.255Z,83.85
2023-08-01T02:16:02.666Z,84.00
2023-08-01T02:18:30.337Z,83.64
2023-08-01T02:20:57.128Z,83.83
2023-08-01T02:23:23.953Z,84.07
2023-08-01T02:25:50.861Z,84.29
2023-08-01T02:28:17.828Z,84.05
2023-08-01T02:30:45.367Z,84.05
2023-08-01T02:33:12.098Z,84.23
2023-08-01T02:35:38.976Z,84.24
2023-08-01T02:38:06.027Z,84.45
2023-08-01T02:40:33.302Z,84.42
2023-08-01T02:43:00.172Z,84.22
2023-08-01T02:45:26.950Z,84.23
2023-08-01T02:47:55.183Z,84.18
2023-08-01T02:50:23.339Z,84.67
2023-08-01T02:52:50.066Z,84.22
2023-08-01T02:55:17.076Z,84.44
2023-08-01T02:57:44.785Z,84.15
2023-08-01T03:00:12.600Z,84.60
2023-08-01T03:02:40.639Z,84.28
2023-08-01T03:05:09.006Z,84.29
2023-08-01T03:07:35.984Z,84.52
2023-08-01T03:10:03.445Z,84.37
2023-08-01T03:12:30.578Z,84.41
2023-08-01T03:14:57.319Z,83.96
2023-08-01T03:17:24.090Z,83.82
2023-08-01T03:19:51.287Z,83.80
2023-08-01T03:22:18.520Z,84.06
2023-08-01T03:24:45.276Z,84.53
2023-08-01T03:27:12.129Z,83.83
2023-08-01T03:29:39.379Z,84.23
2023-08-01T03:32:06.604Z,84.53
2023-08-01T03:34:33.582Z,84.10
2023-08-01T03:37:00.337Z,85.08
2023-08-01T03:39:27.191Z,84.99
2023-08-01T03:41:53.969Z,84.45
2023-08-01T03:44:20.762Z,84.71
2023-08-01T03:46:48.684Z,85.13
2023-08-01T03:49:15.523Z,84.85
2023-08-01T03:51:42.428Z,84.94
2023-08-01T03:54:13.805Z,84.98
2023-08-01T03:56:44.517Z,84.72
2023-08-01T03:59:14.041Z,84.75
2023-08-01T04:01:41.446Z,84.67
2023-08-01T04:04:09.703Z,84.43
2023-08-01T04:06:36.576Z,84.74
2023-08-01T04:09:03.479Z,84.70
2023-08-01T04:11:31.094Z,84.84
2023-08-01T04:13:57.993Z,84.72
2023-08-01T04:16:24.762Z,85.46
2023-08-01T04:18:51.633Z,85.10
2023-08-01T04:21:19.652Z,85.06
2023-08-01T04:23:46.630Z,84.85
2023-08-01T04:26:13.395Z,84.68
2023-08-01T04:28:40.548Z,85.31
2023-08-01T04:31:07.339Z,85.12
2023-08-01T04:33:34.101Z,85.87
2023-08-01T04:36:00.890Z,85.75
2023-08-01T04:38:27.726Z,85.61
2023-08-01T04:40:54.678Z,85.56
2023-08-01T04:43:21.484Z,85.27
2023-08-01T04:45:48.341Z,85.79
2023-08-01T04:48:15.119Z,85.35
2023-08-01T04:50:42.010Z,85.00
2023-08-01T04:53:09.088Z,84.71
2023-08-01T04:55:35.886Z,84.47
2023-08-01T04:58:02.889Z,84.51
2023-08-01T05:00:29.679Z,83.96
2023-08-01T05:02:56.602Z,84.05
2023-08-01T05:05:23.352Z,84.47
2023-08-01T05:07:50.057Z,83.75
2023-08-01T05:10:17.780Z,83.52
2023-08-01T05:12:44.854Z,83.93
2023-08-01T05:15:12.045Z,83.72
2023-08-01T05:17:38.850Z,84.37
2023-08-01T05:20:06.527Z,84.10
2023-08-01T05:22:33.343Z,83.72
2023-08-01T05:25:00.172Z,83.35
2023-08-01T05:27:26.972Z,82.79
2023-08-01T05:29:53.907Z,82.92
2023-08-01T05:32:20.892Z,82.19
2023-08-01T05:34:47.749Z,82.85
2023-08-01T05:37:14.558Z,82.42
2023-08-01T05:39:41.273Z,81.51
2023-08-01T05:42:10.564Z,81.39
2023-08-01T05:44:37.536Z,81.96
2023-08-01T05:47:04.593Z,81.99
2023-08-01T05:49:31.546Z,82.57
2023-08-01T05:51:58.329Z,80.73
2023-08-01T05:54:25.041Z,81.10
2023-08-01T05:56:52.195Z,80.36
2023-08-01T05:59:19.019Z,79.33
2023-08-01T06:01:45.947Z,79.31
2023-08-01T06:04:13.102Z,77.23
2023-08-01T06:06:40.308Z,77.37
2023-08-01T06:09:07.363Z,74.84
2023-08-01T06:11:34.777Z,73.71
2023-08-01T06:14:02.089Z,73.01
2023-08-01T06:16:28.976Z,72.24
2023-08-01T06:18:55.736Z,73.41
2023-08-01T06:21:22.672Z,72.79
2023-08-01T06:23:49.401Z,72.62
2023-08-01T06:26:18.934Z,72.60
2023-08-01T06:28:45.709Z,72.43
2023-08-01T06:31:12.596Z,71.94
2023-08-01T06:33:39.464Z,68.66
2023-08-01T06:36:06.717Z,68.92
2023-08-01T06:38:33.543Z,67.71
2023-08-01T06:41:00.299Z,68.24
2023-08-01T06:43:27.102Z,67.99
2023-08-01T06:45:53.865Z,65.14
2023-08-01T06:48:21.113Z,67.09
2023-08-01T06:50:47.826Z,67.08
2023-08-01T06:53:14.781Z,64.91
2023-08-01T06:55:41.543Z,65.72
2023-08-01T06:58:08.397Z,63.99
2023-08-01T07:00:35.288Z,62.74
2023-08-01T07:03:02.266Z,63.99
2023-08-01T07:05:29.358Z,62.85
2023-08-01T07:07:57.439Z,63.37
2023-08-01T07:10:24.178Z,62.44
2023-08-01T07:12:51.150Z,62.54
2023-08-01T07:15:18.043Z,62.72
2023-08-01T07:17:44.790Z,61.46
2023-08-01T07:20:12.177Z,61.82
2023-08-01T07:22:39.036Z,60.07
2023-08-01T07:25:06.355Z,60.23
2023-08-01T07:27:33.132Z,58.82
2023-08-01T07:29:59.868Z,60.94
2023-08-01T07:32:26.766Z,59.87
2023-08-01T07:34:55.505Z,60.87
2023-08-01T07:37:22.575Z,60.88
2023-08-01T07:39:51.127Z,60.09
2023-08-01T07:42:17.970Z,58.40
2023-08-01T07:44:44.802Z,58.81
2023-08-01T07:47:11.572Z,54.69
2023-08-01T07:49:38.487Z,54.77
2023-08-01T07:52:05.853Z,54.53
2023-08-01T07:54:32.614Z,55.20
2023-08-01T07:56:59.578Z,55.71
2023-08-01T07:59:26.549Z,56.09
2023-08-01T08:01:54.137Z,54.49
2023-08-01T08:04:21.041Z,54.21
2023-08-01T08:06:48.147Z,54.36
2023-08-01T08:09:14.863Z,53.74
2023-08-01T08:11:41.591Z,54.38
2023-08-01T08:14:08.721Z,53.56
2023-08-01T08:16:35.717Z,54.26
2023-08-01T08:19:02.610Z,53.89
2023-08-01T08:21:29.403Z,53.86
2023-08-01T08:23:56.644Z,52.55
2023-08-01T08:26:24.866Z,52.49
2023-08-01T08:28:51.717Z,51.85
2023-08-01T08:31:18.532Z,51.18
2023-08-01T08:33:45.555Z,51.60
2023-08-01T08:36:12.407Z,51.51
2023-08-01T08:38:39.152Z,49.57
2023-08-01T08:41:20.713Z,50.36
2023-08-01T08:43:49.625Z,49.47
2023-08-01T08:46:17.898Z,49.90
2023-08-01T08:48:46.919Z,48.95
2023-08-01T08:51:14.051Z,48.83
2023-08-01T08:53:41.684Z,49.11
2023-08-01T08:56:09.872Z,49.26
2023-08-01T08:58:40.140Z,50.53
2023-08-01T09:01:07.911Z,50.81
2023-08-01T09:03:34.929Z,49.63
2023-08-01T09:06:08.517Z,47.74
2023-08-01T09:08:37.760Z,48.38
2023-08-01T09:11:05.583Z,48.96
2023-08-01T09:13:32.710Z,48.67
2023-08-01T09:16:03.104Z,47.44
2023-08-01T09:18:29.893Z,45.99
2023-08-01T09:21:03.426Z,46.65
2023-08-01T09:23:31.865Z,45.71
2023-08-01T09:26:00.443Z,47.02
2023-08-01T09:28:28.255Z,47.74
2023-08-01T09:30:56.935Z,47.79
2023-08-01T09:33:24.230Z,47.29
2023-08-01T09:35:51.552Z,45.90
2023-08-01T09:38:19.117Z,45.93
2023-08-01T09:40:47.034Z,46.76
2023-08-01T09:43:14.624Z,46.83
2023-08-01T09:45:54.698Z,47.72
2023-08-01T09:48:27.142Z,45.99
2023-08-01T09:51:06.896Z,46.99
2023-08-01T09:53:34.138Z,47.97
2023-08-01T09:56:03.093Z,48.06
2023-08-01T09:58:35.309Z,48.20
2023-08-01T10:01:05.334Z,48.42
2023-08-01T10:03:32.518Z,47.22
2023-08-01T10:06:00.243Z,47.84
2023-08-01T10:08:28.955Z,48.20
2023-08-01T10:10:58.201Z,48.25
2023-08-01T10:13:27.651Z,48.57
2023-08-01T10:15:55.117Z,48.39
2023-08-01T10:18:22.285Z,49.05
2023-08-01T10:20:50.128Z,49.67
2023-08-01T10:23:17.999Z,49.55
2023-08-01T10:25:45.093Z,49.32
2023-08-01T10:28:12.040Z,49.42
2023-08-01T10:30:38.945Z,49.53
2023-08-01T10:33:06.800Z,50.41
2023-08-01T10:35:37.680Z,50.55
2023-08-01T10:38:06.156Z,50.04
2023-08-01T10:40:43.912Z,49.83
2023-08-01T10:43:24.110Z,48.70
2023-08-01T10:46:05.296Z,47.79
2023-08-01T10:48:32.634Z,45.24
2023-08-01T10:50:59.492Z,43.17
2023-08-01T10:53:26.677Z,43.31
2023-08-01T10:55:53.712Z,43.92
2023-08-01T10:58:20.696Z,44.08
2023-08-01T11:00:47.606Z,45.06
2023-08-01T11:03:14.551Z,45.16
2023-08-01T11:05:41.621Z,46.28
2023-08-01T11:08:08.345Z,47.95
2023-08-01T11:10:35.342Z,47.83
2023-08-01T11:13:02.379Z,47.33
2023-08-01T11:15:29.144Z,47.18
2023-08-01T11:17:57.137Z,46.16
2023-08-01T11:20:26.054Z,44.79
2023-08-01T11:23:02.675Z,44.80
2023-08-01T11:25:36.781Z,44.79
2023-08-01T11:28:15.593Z,44.19
2023-08-01T11:30:43.975Z,43.71
2023-08-01T11:33:19.338Z,42.75
2023-08-01T11:35:46.883Z,40.80
2023-08-01T11:38:13.791Z,38.32
2023-08-01T11:40:41.234Z,36.68
2023-08-01T11:43:08.009Z,33.18
2023-08-01T11:45:35.049Z,32.37
2023-08-01T11:48:02.935Z,30.82
2023-08-01T11:50:29.788Z,29.42
2023-08-01T11:52:56.701Z,31.53
2023-08-01T11:55:27.013Z,31.12
2023-08-01T11:57:55.669Z,27.66
2023-08-01T12:00:24.135Z,24.90
2023-08-01T12:02:50.920Z,25.24
2023-08-01T12:05:25.490Z,22.92
2023-08-01T12:07:52.386Z,21.53
2023-08-01T12:10:19.597Z,20.34
2023-08-01T12:12:50.028Z,22.25
2023-08-01T12:15:16.858Z,27.59
2023-08-01T12:17:43.729Z,27.73
2023-08-01T12:20:10.832Z,23.12
2023-08-01T12:22:37.594Z,21.20
2023-08-01T12:25:04.762Z,19.85
2023-08-01T12:27:31.541Z,23.96
2023-08-01T12:29:58.223Z,22.24
2023-08-01T12:32:25.398Z,21.34
2023-08-01T12:34:52.133Z,25.13
2023-08-01T12:37:18.806Z,27.63
2023-08-01T12:39:45.826Z,24.72
2023-08-01T12:42:12.651Z,21.12
2023-08-01T12:44:39.377Z,23.32
2023-08-01T12:47:09.006Z,27.46
2023-08-01T12:49:36.136Z,24.94
2023-08-01T12:52:04.342Z,28.20
2023-08-01T12:54:31.343Z,31.77
2023-08-01T12:56:58.353Z,34.02
2023-08-01T12:59:25.145Z,34.90
2023-08-01T13:01:51.957Z,30.50
2023-08-01T13:04:18.687Z,31.08
2023-08-01T13:06:46.125Z,31.88
2023-08-01T13:09:15.450Z,30.63
2023-08-01T13:11:45.021Z,31.81
2023-08-01T13:14:11.722Z,32.71
2023-08-01T13:16:38.838Z,33.66
2023-08-01T13:19:05.679Z,33.41
2023-08-01T13:21:32.437Z,33.94
2023-08-01T13:23:59.239Z,33.49
2023-08-01T13:26:26.282Z,34.56
2023-08-01T13:28:52.925Z,36.00
2023-08-01T13:31:19.820Z,35.98
2023-08-01T13:33:46.573Z,36.22
2023-08-01T13:36:13.201Z,36.78
2023-08-01T13:38:40.058Z,37.16
2023-08-01T13:41:06.831Z,36.37
2023-08-01T13:43:34.107Z,35.41
2023-08-01T13:46:02.194Z,36.29
2023-08-01T13:48:30.672Z,37.39
2023-08-01T13:50:59.986Z,37.39
2023-08-01T13:53:26.916Z,38.41
2023-08-01T13:55:55.324Z,37.50
2023-08-01T13:58:21.965Z,37.13
2023-08-01T14:00:48.922Z,37.31
2023-08-01T14:03:16.093Z,37.06
2023-08-01T14:05:43.009Z,36.32
2023-08-01T14:08:09.764Z,36.86
2023-08-01T14:10:36.418Z,37.98
2023-08-01T14:13:03.129Z,37.69
2023-08-01T14:15:29.951Z,37.13
2023-08-01T14:17:56.808Z,37.28
2023-08-01T14:20:23.558Z,36.32
2023-08-01T14:22:50.702Z,36.52
2023-08-01T14:25:17.470Z,37.44
2023-08-01T14:27:44.452Z,37.26
2023-08-01T14:30:11.881Z,37.44
2023-08-01T14:32:39.990Z,37.27
2023-08-01T14:35:07.295Z,37.65
2023-08-01T14:37:34.281Z,38.25
2023-08-01T14:40:01.202Z,38.82
2023-08-01T14:42:27.935Z,37.42
2023-08-01T14:44:55.617Z,37.31
2023-08-01T14:47:22.884Z,37.32
2023-08-01T14:49:50.306Z,37.33
2023-08-01T14:52:17.115Z,37.60
2023-08-01T14:54:44.034Z,38.08
2023-08-01T14:57:10.828Z,38.31
2023-08-01T14:59:37.865Z,38.85
2023-08-01T15:02:05.692Z,38.80
2023-08-01T15:04:33.446Z,38.91
2023-08-01T15:07:02.595Z,38.06
2023-08-01T15:09:29.386Z,38.89
2023-08-01T15:11:56.257Z,38.60
2023-08-01T15:14:24.164Z,37.79
2023-08-01T15:16:50.907Z,38.64
2023-08-01T15:19:17.658Z,39.20
2023-08-01T15:21:46.412Z,39.41
2023-08-01T15:24:13.140Z,40.00
2023-08-01T15:26:40.143Z,39.99
2023-08-01T15:29:07.653Z,39.96
2023-08-01T15:31:35.946Z,40.18
2023-08-01T15:34:02.893Z,40.42
2023-08-01T15:36:30.276Z,40.13
2023-08-01T15:39:00.664Z,39.92
2023-08-01T15:41:28.000Z,40.02
2023-08-01T15:43:55.477Z,40.69
2023-08-01T15:46:22.324Z,40.57
2023-08-01T15:48:50.058Z,40.59
2023-08-01T15:51:17.049Z,40.53
2023-08-01T15:53:44.094Z,41.41
2023-08-01T15:56:11.964Z,41.16
2023-08-01T15:58:40.698Z,41.32
2023-08-01T16:01:11.359Z,41.00
2023-08-01T16:03:43.321Z,40.98
2023-08-01T16:06:11.194Z,41.65
2023-08-01T16:08:38.714Z,41.61
2023-08-01T16:11:05.630Z,41.95
2023-08-01T16:13:32.648Z,42.25
2023-08-01T16:16:00.766Z,42.50
2023-08-01T16:18:27.629Z,42.50
2023-08-01T16:20:54.513Z,42.78
2023-08-01T16:23:22.471Z,42.53
2023-08-01T16:25:49.345Z,43.27
2023-08-01T16:28:16.153Z,43.13
2023-08-01T16:30:42.980Z,43.61
2023-08-01T16:33:10.968Z,43.81
2023-08-01T16:35:38.300Z,44.09
2023-08-01T16:38:05.129Z,44.48
2023-08-01T16:40:32.330Z,44.56
2023-08-01T16:42:59.387Z,44.95
2023-08-01T16:45:33.227Z,45.13
2023-08-01T16:48:01.203Z,45.57
2023-08-01T16:50:28.143Z,45.79
2023-08-01T16:52:55.109Z,45.91
2023-08-01T16:55:21.914Z,46.04
2023-08-01T16:57:48.921Z,46.51
2023-08-01T17:00:16.270Z,46.52
2023-08-01T17:02:43.432Z,46.76
2023-08-01T17:05:14.206Z,46.78
2023-08-01T17:07:41.448Z,47.06
2023-08-01T17:10:08.701Z,46.80
2023-08-01T17:12:35.824Z,46.75
2023-08-01T17:15:03.163Z,47.01
2023-08-01T17:17:30.104Z,47.14
2023-08-01T17:19:57.400Z,47.38
2023-08-01T17:22:28.271Z,47.72
2023-08-01T17:24:55.637Z,47.89
2023-08-01T17:27:22.518Z,47.66
2023-08-01T17:29:50.289Z,48.10
2023-08-01T17:32:19.439Z,48.21
2023-08-01T17:34:46.648Z,48.38
2023-08-01T17:37:14.007Z,48.29
2023-08-01T17:39:41.014Z,48.53
2023-08-01T17:42:07.957Z,49.03
2023-08-01T17:44:40.303Z,49.37
2023-08-01T17:47:08.837Z,49.61
2023-08-01T17:49:35.911Z,49.75
2023-08-01T17:52:03.816Z,50.14
2023-08-01T17:54:30.821Z,50.22
2023-08-01T17:56:57.888Z,50.67
2023-08-01T17:59:24.792Z,50.41
2023-08-01T18:01:54.324Z,50.81
2023-08-01T18:04:22.365Z,51.05
2023-08-01T18:06:49.960Z,51.25
2023-08-01T18:09:19.878Z,51.30
2023-08-01T18:11:47.317Z,51.60
2023-08-01T18:14:14.494Z,51.94
2023-08-01T18:16:41.924Z,51.47
2023-08-01T18:19:09.508Z,51.75
2023-08-01T18:21:36.759Z,51.84
2023-08-01T18:24:03.901Z,51.52
2023-08-01T18:26:30.925Z,51.83
2023-08-01T18:28:58.137Z,52.26
2023-08-01T18:31:25.283Z,52.22
2023-08-01T18:33:52.516Z,52.53
2023-08-01T18:36:21.613Z,52.57
2023-08-01T18:38:50.327Z,52.98
2023-08-01T18:41:20.363Z,53.06
2023-08-01T18:43:47.966Z,53.08
2023-08-01T18:46:15.677Z,53.65
2023-08-01T18:48:43.797Z,53.93
2023-08-01T18:51:22.040Z,53.91
2023-08-01T18:53:49.211Z,54.69
2023-08-01T18:56:18.341Z,54.55
2023-08-01T18:58:46.161Z,54.88
2023-08-01T19:01:13.995Z,55.21
2023-08-01T19:03:42.855Z,55.47
2023-08-01T19:06:10.122Z,55.39
2023-08-01T19:08:37.696Z,55.47
2023-08-01T19:11:04.942Z,55.87
2023-08-01T19:13:32.159Z,56.51
2023-08-01T19:16:00.298Z,56.64
2023-08-01T19:18:29.720Z,56.85
2023-08-01T19:20:58.979Z,56.76
2023-08-01T19:23:26.070Z,57.04
2023-08-01T19:25:53.531Z,57.35
2023-08-01T19:28:21.095Z,57.73
2023-08-01T19:30:49.282Z,57.61
2023-08-01T19:33:16.392Z,57.95
2023-08-01T19:35:45.055Z,57.62
2023-08-01T19:38:12.837Z,57.67
2023-08-01T19:40:42.955Z,57.74
2023-08-01T19:43:10.837Z,57.90
2023-08-01T19:45:39.333Z,57.95
2023-08-01T19:48:07.471Z,58.42
2023-08-01T19:50:34.773Z,58.13
2023-08-01T19:53:01.828Z,59.21
2023-08-01T19:55:29.043Z,58.38
2023-08-01T19:57:58.371Z,58.69
2023-08-01T20:00:26.973Z,59.07
2023-08-01T20:02:57.787Z,58.68
2023-08-01T20:05:25.163Z,59.31
2023-08-01T20:07:52.519Z,59.13
2023-08-01T20:10:19.742Z,59.11
2023-08-01T20:12:46.763Z,59.58
2023-08-01T20:15:13.786Z,59.65
2023-08-01T20:17:42.078Z,59.51
2023-08-01T20:20:10.996Z,59.59
2023-08-01T20:22:38.564Z,59.71
2023-08-01T20:25:06.870Z,59.39
2023-08-01T20:27:34.365Z,59.49
2023-08-01T20:30:01.203Z,59.64
2023-08-01T20:32:28.295Z,59.79
2023-08-01T20:34:55.186Z,60.30
2023-08-01T20:37:22.211Z,60.27
2023-08-01T20:39:49.159Z,60.13
2023-08-01T20:42:16.652Z,60.54
2023-08-01T20:44:43.999Z,60.43
2023-08-01T20:47:10.980Z,60.60
2023-08-01T20:49:37.873Z,60.26
2023-08-01T20:52:05.161Z,60.78
2023-08-01T20:54:32.085Z,60.94
2023-08-01T20:56:59.409Z,60.66
2023-08-01T20:59:26.439Z,60.83
2023-08-01T21:01:53.169Z,61.37
2023-08-01T21:04:20.167Z,61.42
2023-08-01T21:06:47.232Z,61.57
2023-08-01T21:09:14.290Z,61.42
2023-08-01T21:11:41.226Z,61.45
2023-08-01T21:14:08.554Z,61.61
2023-08-01T21:16:35.503Z,61.62
2023-08-01T21:19:02.446Z,61.49
2023-08-01T21:21:29.136Z,61.93
2023-08-01T21:23:56.043Z,61.71
2023-08-01T21:26:23.019Z,62.39
2023-08-01T21:28:49.833Z,61.96
2023-08-01T21:31:16.712Z,62.42
2023-08-01T21:33:43.813Z,62.51
2023-08-01T21:36:10.812Z,62.63
2023-08-01T21:38:37.517Z,62.77
2023-08-01T21:41:04.476Z,62.75
2023-08-01T21:43:31.369Z,62.81
2023-08-01T21:46:01.419Z,62.71
2023-08-01T21:48:29.432Z,62.89
2023-08-01T21:50:56.578Z,62.75
2023-08-01T21:53:23.468Z,63.36
2023-08-01T21:55:50.490Z,63.04
2023-08-01T21:58:17.600Z,62.94
2023-08-01T22:00:45.065Z,63.28
2023-08-01T22:03:12.904Z,63.27
2023-08-01T22:05:40.272Z,63.78
2023-08-01T22:08:07.982Z,63.48
2023-08-01T22:10:35.237Z,64.12
2023-08-01T22:13:02.637Z,64.02
2023-08-01T22:15:30.083Z,63.73
2023-08-01T22:17:58.004Z,64.09
2023-08-01T22:20:24.966Z,63.79
2023-08-01T22:22:51.670Z,63.89
2023-08-01T22:25:18.779Z,64.15
2023-08-01T22:27:45.829Z,63.94
2023-08-01T22:30:12.739Z,64.40
2023-08-01T22:32:39.696Z,64.51
2023-08-01T22:35:07.116Z,64.61
2023-08-01T22:37:33.927Z,64.80
2023-08-01T22:40:01.284Z,65.17
2023-08-01T22:42:28.156Z,64.87
2023-08-01T22:44:54.785Z,65.00
2023-08-01T22:47:21.793Z,65.21
2023-08-01T22:50:03.385Z,64.92
2023-08-01T22:52:32.462Z,65.17
2023-08-01T22:54:59.520Z,65.12
2023-08-01T22:57:26.349Z,66.76
2023-08-01T22:59:53.205Z,67.36
2023-08-01T23:02:20.428Z,67.53
2023-08-01T23:04:48.234Z,67.57
2023-08-01T23:07:16.164Z,67.35
2023-08-01T23:09:43.418Z,67.10
2023-08-01T23:12:10.357Z,67.20
2023-08-01T23:14:37.204Z,67.46
2023-08-01T23:17:04.425Z,67.88
2023-08-01T23:19:31.185Z,67.87
2023-08-01T23:21:58.031Z,68.77
2023-08-01T23:24:24.780Z,69.32
2023-08-01T23:26:51.532Z,69.62
2023-08-01T23:29:18.374Z,70.69
2023-08-01T23:31:45.199Z,70.31
2023-08-01T23:34:11.928Z,70.53
2023-08-01T23:36:38.750Z,70.57
2023-08-01T23:39:05.566Z,71.50
2023-08-01T23:41:32.424Z,72.93
2023-08-01T23:43:59.182Z,72.60
2023-08-01T23:46:26.014Z,73.97
2023-08-01T23:48:52.949Z,74.14
2023-08-01T23:51:20.716Z,74.52
2023-08-01T23:53:47.703Z,74.97
2023-08-01T23:56:14.560Z,75.04
2023-08-01T23:58:42.006Z,75.16
